Time;durP1;ratioP1;P1;durP2;ratioP2;P2;SDS_P1;SDS_P2;PMS_P1;PMS_P2;Temp;Humidity;BMP_temperature;BMP_pressure;BME280_temperature;BME280_humidity;BME280_pressure;Samples;Min_cycle;Max_cycle;Signal;HPM_P1;HPM_P2
2023/03/12 00:00:03;;;;;;;6.43;4.53;;;1.10;99.90;;;;;;4992796;28;20230;-79
2023/03/12 00:02:36;;;;;;;8.80;5.00;;;1.00;99.90;;;;;;4980551;28;20282;-79
2023/03/12 00:05:03;;;;;;;7.97;5.43;;;1.00;99.90;;;;;;4986900;28;20775;-78
2023/03/12 00:07:30;;;;;;;5.70;4.57;;;1.00;99.90;;;;;;4985222;28;20694;-78
2023/03/12 00:09:57;;;;;;;6.57;4.77;;;1.00;99.90;;;;;;4982475;28;20221;-78
2023/03/12 00:12:23;;;;;;;6.20;4.77;;;1.00;99.90;;;;;;4985285;28;20244;-77
2023/03/12 00:14:50;;;;;;;7.17;4.80;;;1.00;99.90;;;;;;5000617;28;20242;-77
2023/03/12 00:17:17;;;;;;;7.60;4.80;;;1.10;99.90;;;;;;4987909;28;20221;-78
2023/03/12 00:19:45;;;;;;;7.50;5.57;;;1.10;99.90;;;;;;4984831;28;20229;-79
2023/03/12 00:22:13;;;;;;;9.47;5.20;;;1.10;99.90;;;;;;4987663;28;20286;-78
2023/03/12 00:24:39;;;;;;;6.07;5.10;;;1.10;99.90;;;;;;4985566;28;20290;-79
2023/03/12 00:27:07;;;;;;;10.30;6.10;;;1.10;99.90;;;;;;4984168;28;20224;-78
2023/03/12 00:29:33;;;;;;;8.30;5.93;;;1.10;99.90;;;;;;4984821;28;20917;-78
2023/03/12 00:32:00;;;;;;;7.57;5.37;;;1.10;99.90;;;;;;4979567;28;20810;-78
2023/03/12 00:34:27;;;;;;;9.90;5.83;;;1.00;99.90;;;;;;4985530;28;20226;-79
2023/03/12 00:36:55;;;;;;;11.83;6.43;;;1.10;99.90;;;;;;4986203;28;20211;-79
2023/03/12 00:39:21;;;;;;;11.23;6.63;;;1.10;99.90;;;;;;4983770;28;20224;-78
2023/03/12 00:41:48;;;;;;;9.03;6.23;;;1.10;99.90;;;;;;4993635;28;20309;-79
2023/03/12 00:44:15;;;;;;;7.40;6.60;;;1.00;99.90;;;;;;4991813;28;20316;-77
2023/03/12 00:46:42;;;;;;;10.80;6.50;;;1.00;99.90;;;;;;4985586;28;20234;-77
2023/03/12 00:49:10;;;;;;;7.97;6.77;;;1.00;99.90;;;;;;4987545;28;20283;-77
2023/03/12 00:51:38;;;;;;;8.37;6.40;;;1.00;99.90;;;;;;4991257;28;20248;-78
2023/03/12 00:54:06;;;;;;;8.60;6.77;;;1.00;99.90;;;;;;4977283;28;20222;-78
2023/03/12 00:56:33;;;;;;;10.17;6.70;;;0.90;99.90;;;;;;4988094;28;20813;-79
2023/03/12 00:59:00;;;;;;;9.27;6.63;;;0.90;99.90;;;;;;4987333;28;20322;-78
2023/03/12 01:01:27;;;;;;;8.80;6.57;;;0.80;99.90;;;;;;4984341;28;20223;-78
2023/03/12 01:03:54;;;;;;;10.93;6.70;;;0.80;99.90;;;;;;4987358;28;20722;-78
2023/03/12 01:06:21;;;;;;;8.30;6.90;;;0.70;99.90;;;;;;4987589;28;20234;-78
2023/03/12 01:08:48;;;;;;;11.70;6.70;;;0.70;99.90;;;;;;4987315;28;20929;-78
2023/03/12 01:11:18;;;;;;;14.17;7.27;;;0.70;99.90;;;;;;4983638;28;20221;-78
2023/03/12 01:13:45;;;;;;;7.60;6.77;;;0.70;99.90;;;;;;4990850;28;20222;-78
2023/03/12 01:16:12;;;;;;;13.87;7.70;;;0.60;99.90;;;;;;4984841;28;20234;-78
2023/03/12 01:18:39;;;;;;;13.13;8.30;;;0.70;99.90;;;;;;4977662;28;20230;-79
2023/03/12 01:21:05;;;;;;;9.03;7.10;;;0.60;99.90;;;;;;4986661;28;20228;-79
2023/03/12 01:23:32;;;;;;;11.53;6.93;;;0.60;99.90;;;;;;4985386;28;20227;-79
2023/03/12 01:25:59;;;;;;;10.80;7.27;;;0.60;99.90;;;;;;4981587;28;20230;-79
2023/03/12 01:28:27;;;;;;;12.50;7.40;;;0.60;99.90;;;;;;4986343;28;20226;-79
2023/03/12 01:30:54;;;;;;;12.57;7.57;;;0.70;99.90;;;;;;4984528;28;20221;-78
2023/03/12 01:33:22;;;;;;;8.67;7.20;;;0.70;99.90;;;;;;4988713;28;20802;-79
2023/03/12 01:35:49;;;;;;;9.63;7.73;;;0.70;99.90;;;;;;4981950;28;20664;-78
2023/03/12 01:38:19;;;;;;;10.63;7.73;;;0.70;99.90;;;;;;4987742;28;20218;-78
2023/03/12 01:40:46;;;;;;;29.77;8.43;;;0.70;99.90;;;;;;4981647;28;20223;-78
2023/03/12 01:43:28;;;;;;;8.47;6.27;;;0.70;99.90;;;;;;4981610;28;20239;-79
2023/03/12 01:46:19;;;;;;;7.57;6.67;;;0.80;99.90;;;;;;4983038;28;20239;-78
2023/03/12 01:48:51;;;;;;;11.40;5.90;;;0.80;99.90;;;;;;4982039;28;20274;-79
2023/03/12 01:51:18;;;;;;;9.37;6.57;;;0.80;99.90;;;;;;4978080;28;20720;-78
2023/03/12 01:53:49;;;;;;;9.27;6.30;;;0.80;99.90;;;;;;4993191;28;20234;-78
2023/03/12 01:56:18;;;;;;;9.23;6.20;;;0.80;99.90;;;;;;4987318;28;20229;-78
2023/03/12 01:58:50;;;;;;;9.00;6.30;;;0.80;99.90;;;;;;4986725;28;20223;-78
2023/03/12 02:01:19;;;;;;;12.63;6.57;;;0.80;99.90;;;;;;4990428;28;20310;-78
2023/03/12 02:03:47;;;;;;;12.03;7.27;;;0.80;99.90;;;;;;4986162;28;20318;-79
2023/03/12 02:06:15;;;;;;;11.77;6.17;;;0.80;99.90;;;;;;5000711;28;20231;-78
2023/03/12 02:08:45;;;;;;;13.60;6.53;;;0.90;99.90;;;;;;4981080;28;20238;-79
2023/03/12 02:11:12;;;;;;;10.93;7.17;;;0.90;99.90;;;;;;4983391;28;20232;-79
2023/03/12 02:13:40;;;;;;;42.43;8.30;;;1.00;99.90;;;;;;4986175;28;20837;-78
2023/03/12 02:16:09;;;;;;;12.23;6.37;;;1.00;99.90;;;;;;4980654;28;20240;-78
2023/03/12 02:18:36;;;;;;;8.30;6.53;;;1.00;99.90;;;;;;4982299;28;20228;-79
2023/03/12 02:21:13;;;;;;;18.10;7.37;;;1.00;99.90;;;;;;4981558;28;20318;-78
2023/03/12 02:23:45;;;;;;;14.57;7.50;;;1.00;99.90;;;;;;4977847;28;20221;-79
2023/03/12 02:26:14;;;;;;;16.67;8.03;;;1.00;99.90;;;;;;4979360;28;20226;-79
2023/03/12 02:28:43;;;;;;;15.23;8.17;;;1.00;99.90;;;;;;4984053;28;20228;-79
2023/03/12 02:31:13;;;;;;;10.97;7.73;;;1.00;99.90;;;;;;4997235;28;20237;-78
2023/03/12 02:33:40;;;;;;;18.07;7.77;;;1.00;99.90;;;;;;4981026;28;20220;-79
2023/03/12 02:36:08;;;;;;;11.17;7.93;;;1.00;99.90;;;;;;4981232;28;20794;-79
2023/03/12 02:38:39;;;;;;;12.13;7.83;;;1.00;99.90;;;;;;4999375;28;20230;-79
2023/03/12 02:41:15;;;;;;;14.57;8.07;;;1.00;99.90;;;;;;4981327;28;20230;-78
2023/03/12 02:43:51;;;;;;;18.00;7.87;;;1.00;99.90;;;;;;4985114;28;20339;-78
2023/03/12 02:46:19;;;;;;;12.00;8.13;;;1.00;99.90;;;;;;4981092;28;20306;-78
2023/03/12 02:48:46;;;;;;;10.63;7.90;;;1.00;99.90;;;;;;4983721;28;20230;-79
2023/03/12 02:51:12;;;;;;;20.90;8.60;;;1.00;99.90;;;;;;4979099;28;20302;-79
2023/03/12 02:53:39;;;;;;;13.83;8.40;;;1.00;99.90;;;;;;4976357;28;20777;-78
2023/03/12 02:56:06;;;;;;;13.57;8.53;;;1.00;99.90;;;;;;4979038;28;20322;-78
2023/03/12 02:58:35;;;;;;;13.17;8.50;;;1.00;99.90;;;;;;4982085;28;20238;-79
2023/03/12 03:01:01;;;;;;;10.17;8.33;;;1.00;99.90;;;;;;4981664;28;20236;-79
2023/03/12 03:03:28;;;;;;;18.17;7.90;;;1.00;99.90;;;;;;4981900;28;20252;-79
2023/03/12 03:05:55;;;;;;;21.10;8.67;;;1.00;99.90;;;;;;4982627;28;20312;-79
2023/03/12 03:08:22;;;;;;;20.80;9.13;;;1.00;99.90;;;;;;4985999;28;20218;-79
2023/03/12 03:10:51;;;;;;;13.60;9.00;;;1.00;99.90;;;;;;4985605;28;20227;-79
2023/03/12 03:13:19;;;;;;;13.73;8.63;;;0.90;99.90;;;;;;4984138;28;20225;-78
2023/03/12 03:15:47;;;;;;;12.50;9.13;;;1.00;99.90;;;;;;4978905;28;20259;-78
2023/03/12 03:18:13;;;;;;;14.67;9.47;;;1.00;99.90;;;;;;4983334;28;20729;-78
2023/03/12 03:20:42;;;;;;;13.87;9.73;;;1.00;99.90;;;;;;4981076;28;20225;-78
2023/03/12 03:23:09;;;;;;;16.43;10.70;;;1.00;99.90;;;;;;4982073;28;20226;-79
2023/03/12 03:25:35;;;;;;;19.63;11.03;;;1.00;99.90;;;;;;4985362;28;20248;-79
2023/03/12 03:28:02;;;;;;;15.40;10.90;;;1.00;99.90;;;;;;4980284;28;20224;-78
2023/03/12 03:30:29;;;;;;;13.97;10.83;;;1.00;99.90;;;;;;4978891;28;20266;-78
2023/03/12 03:32:57;;;;;;;17.67;10.70;;;1.00;99.90;;;;;;4986248;28;20222;-78
2023/03/12 03:35:23;;;;;;;16.93;11.70;;;1.00;99.90;;;;;;4983413;28;20238;-79
2023/03/12 03:37:50;;;;;;;17.87;11.83;;;0.90;99.90;;;;;;4987424;28;20872;-78
2023/03/12 03:40:18;;;;;;;18.13;12.40;;;0.90;99.90;;;;;;4977462;28;20226;-78
2023/03/12 03:42:45;;;;;;;14.00;11.60;;;0.90;99.90;;;;;;4981566;28;20356;-78
2023/03/12 03:45:12;;;;;;;15.57;12.00;;;0.90;99.90;;;;;;4989477;28;20276;-78
2023/03/12 03:47:41;;;;;;;17.17;10.63;;;0.90;99.90;;;;;;4992145;28;20317;-78
2023/03/12 03:50:12;;;;;;;19.93;11.80;;;0.80;99.90;;;;;;4983975;28;20234;-80
2023/03/12 03:52:39;;;;;;;16.80;11.00;;;0.70;99.90;;;;;;4986709;28;20214;-79
2023/03/12 03:55:06;;;;;;;15.03;10.83;;;0.70;99.90;;;;;;4986184;28;20370;-79
2023/03/12 03:57:33;;;;;;;14.40;10.60;;;0.70;99.90;;;;;;4986162;28;20725;-78
2023/03/12 04:00:00;;;;;;;16.63;11.27;;;0.60;99.90;;;;;;5001192;28;20219;-78
2023/03/12 04:02:28;;;;;;;16.10;11.77;;;0.40;99.90;;;;;;4988402;28;20224;-78
2023/03/12 04:04:57;;;;;;;15.23;10.50;;;0.50;99.90;;;;;;4983451;28;20249;-78
2023/03/12 04:07:27;;;;;;;14.77;11.33;;;0.50;99.90;;;;;;4981914;28;20702;-79
2023/03/12 04:09:54;;;;;;;14.17;10.37;;;0.40;99.90;;;;;;4980449;28;21592;-79
2023/03/12 04:12:22;;;;;;;18.67;11.73;;;0.30;99.90;;;;;;4984684;28;20212;-79
2023/03/12 04:14:49;;;;;;;14.80;11.30;;;0.30;99.90;;;;;;4998517;28;20222;-79
2023/03/12 04:17:16;;;;;;;13.43;10.87;;;0.20;99.90;;;;;;4979886;28;20241;-78
2023/03/12 04:19:43;;;;;;;14.97;11.23;;;0.20;99.90;;;;;;4997915;28;20226;-78
2023/03/12 04:22:10;;;;;;;15.27;11.27;;;0.10;99.90;;;;;;4983145;28;20319;-79
2023/03/12 04:24:38;;;;;;;14.10;11.37;;;0.10;99.90;;;;;;4983386;28;20239;-78
2023/03/12 04:27:05;;;;;;;15.20;11.00;;;0.00;99.90;;;;;;4981100;28;20236;-78
2023/03/12 04:29:33;;;;;;;18.43;12.47;;;0.00;99.90;;;;;;4979401;28;21965;-79
2023/03/12 04:32:01;;;;;;;17.53;11.67;;;0.00;99.90;;;;;;4979952;28;20915;-79
2023/03/12 04:34:28;;;;;;;17.23;11.17;;;-0.10;99.90;;;;;;4980167;28;20305;-79
2023/03/12 04:36:56;;;;;;;79.93;14.33;;;-0.10;99.90;;;;;;4992460;28;20227;-81
2023/03/12 04:39:23;;;;;;;16.07;12.30;;;-0.10;99.90;;;;;;4989939;28;20228;-81
2023/03/12 04:41:53;;;;;;;17.87;12.20;;;-0.20;99.90;;;;;;4990962;28;20229;-83
2023/03/12 04:44:20;;;;;;;16.87;11.97;;;-0.30;99.90;;;;;;4987791;28;20222;-81
2023/03/12 04:46:47;;;;;;;14.60;11.17;;;-0.30;99.90;;;;;;4982169;28;20223;-81
2023/03/12 04:49:18;;;;;;;15.87;10.67;;;-0.40;99.90;;;;;;4987897;28;20218;-84
2023/03/12 04:51:45;;;;;;;15.63;11.40;;;-0.50;99.90;;;;;;4986968;28;20759;-80
2023/03/12 04:54:12;;;;;;;15.17;11.37;;;-0.50;99.90;;;;;;4992501;28;20237;-82
2023/03/12 04:56:40;;;;;;;16.00;11.17;;;-0.60;99.90;;;;;;5001363;28;20778;-83
2023/03/12 04:59:08;;;;;;;22.33;11.97;;;-0.70;99.90;;;;;;4989898;28;20309;-81
2023/03/12 05:01:36;;;;;;;15.83;10.63;;;-0.70;99.90;;;;;;4989201;28;20855;-82
2023/03/12 05:04:08;;;;;;;15.20;10.73;;;-0.80;99.90;;;;;;4983789;28;20604;-79
2023/03/12 05:06:35;;;;;;;22.67;11.57;;;-0.80;99.90;;;;;;4985346;28;20740;-82
2023/03/12 05:09:02;;;;;;;36.10;12.13;;;-0.90;99.90;;;;;;4985358;28;20240;-81
2023/03/12 05:11:29;;;;;;;17.47;10.57;;;-1.00;99.90;;;;;;4982625;28;20299;-81
2023/03/12 05:13:56;;;;;;;13.70;10.30;;;-1.00;99.90;;;;;;4991258;28;20225;-82
2023/03/12 05:16:25;;;;;;;13.03;9.60;;;-1.10;99.90;;;;;;4991723;28;20229;-82
2023/03/12 05:18:52;;;;;;;21.47;10.40;;;-1.10;99.90;;;;;;4996036;28;20232;-81
2023/03/12 05:21:20;;;;;;;17.67;9.60;;;-1.10;99.90;;;;;;4990627;28;20221;-81
2023/03/12 05:23:50;;;;;;;17.23;10.23;;;-1.20;99.90;;;;;;4993546;28;20981;-82
2023/03/12 05:26:19;;;;;;;24.77;9.63;;;-1.20;99.90;;;;;;4985243;28;20767;-82
2023/03/12 05:28:46;;;;;;;11.77;8.93;;;-1.20;99.90;;;;;;4991982;28;20231;-84
2023/03/12 05:31:14;;;;;;;12.20;8.93;;;-1.20;99.90;;;;;;4988120;28;21187;-86
2023/03/12 05:33:43;;;;;;;30.23;9.60;;;-1.20;99.90;;;;;;4991875;28;20307;-80
2023/03/12 05:36:11;;;;;;;11.53;8.20;;;-1.20;99.90;;;;;;4984839;28;20230;-84
2023/03/12 05:38:38;;;;;;;20.03;9.20;;;-1.20;99.90;;;;;;4991519;28;20314;-87
2023/03/12 05:41:06;;;;;;;24.60;9.43;;;-1.20;99.90;;;;;;4987347;28;20741;-87
2023/03/12 05:43:36;;;;;;;42.17;10.07;;;-1.20;99.90;;;;;;4988544;28;20224;-87
2023/03/12 05:46:04;;;;;;;11.37;8.10;;;-1.20;99.90;;;;;;4989445;28;20222;-83
2023/03/12 05:48:33;;;;;;;12.30;8.70;;;-1.20;99.90;;;;;;4990317;28;20221;-86
2023/03/12 05:51:01;;;;;;;15.83;8.33;;;-1.30;99.90;;;;;;4986833;28;20934;-82
2023/03/12 05:53:28;;;;;;;12.73;8.50;;;-1.30;99.90;;;;;;4986750;28;20238;-83
2023/03/12 05:55:55;;;;;;;10.87;8.27;;;-1.30;99.90;;;;;;4981925;28;20807;-83
2023/03/12 05:58:22;;;;;;;14.43;8.27;;;-1.30;99.90;;;;;;4985452;28;20272;-82
2023/03/12 06:00:50;;;;;;;10.90;8.37;;;-1.30;99.90;;;;;;4988513;28;20226;-81
2023/03/12 06:03:17;;;;;;;16.83;8.77;;;-1.30;99.90;;;;;;4989498;28;20219;-83
2023/03/12 06:05:45;;;;;;;13.10;8.53;;;-1.30;99.90;;;;;;4989736;28;20262;-78
2023/03/12 06:08:13;;;;;;;11.23;8.60;;;-1.20;99.90;;;;;;4983208;28;20261;-79
2023/03/12 06:10:41;;;;;;;13.57;8.80;;;-1.20;99.90;;;;;;4986674;28;20610;-79
2023/03/12 06:13:08;;;;;;;16.73;9.33;;;-1.20;99.90;;;;;;4989767;28;20231;-79
2023/03/12 06:15:34;;;;;;;15.77;8.33;;;-1.20;99.90;;;;;;4989299;28;20713;-83
2023/03/12 06:18:03;;;;;;;11.90;8.53;;;-1.20;99.90;;;;;;4988947;28;20229;-79
2023/03/12 06:20:31;;;;;;;14.87;9.07;;;-1.10;99.90;;;;;;5001874;28;20236;-80
2023/03/12 06:22:58;;;;;;;65.33;11.00;;;-1.10;99.90;;;;;;4982821;28;20725;-82
2023/03/12 06:25:27;;;;;;;12.43;8.13;;;-1.10;99.90;;;;;;4984047;28;20509;-79
2023/03/12 06:27:53;;;;;;;22.13;9.83;;;-1.00;99.90;;;;;;4982550;28;20223;-79
2023/03/12 06:30:20;;;;;;;17.90;9.57;;;-1.00;99.90;;;;;;4984890;28;20255;-81
2023/03/12 06:32:47;;;;;;;14.60;9.60;;;-1.00;99.90;;;;;;4984488;28;20308;-81
2023/03/12 06:35:14;;;;;;;14.20;8.73;;;-1.00;99.90;;;;;;4984676;28;20280;-80
2023/03/12 06:37:40;;;;;;;20.77;13.83;;;-0.90;99.90;;;;;;4984924;28;20245;-82
2023/03/12 06:40:09;;;;;;;15.10;11.87;;;-0.80;99.90;;;;;;4988365;28;20230;-79
2023/03/12 06:42:37;;;;;;;10.87;8.63;;;-0.80;99.90;;;;;;4983699;28;20313;-81
2023/03/12 06:45:06;;;;;;;12.13;7.80;;;-0.80;99.90;;;;;;4988170;28;20309;-80
2023/03/12 06:47:33;;;;;;;19.20;8.53;;;-0.80;99.90;;;;;;4987264;28;20225;-80
2023/03/12 06:49:59;;;;;;;12.40;8.17;;;-0.70;99.90;;;;;;4983697;28;20226;-82
2023/03/12 06:52:27;;;;;;;9.67;7.67;;;-0.70;99.90;;;;;;4989294;28;20223;-81
2023/03/12 06:54:54;;;;;;;11.87;8.30;;;-0.70;99.90;;;;;;4993153;28;20233;-82
2023/03/12 06:57:20;;;;;;;10.90;7.93;;;-0.70;99.90;;;;;;4989716;28;20233;-80
2023/03/12 06:59:48;;;;;;;10.40;7.20;;;-0.70;99.90;;;;;;4984833;28;20237;-81
2023/03/12 07:02:16;;;;;;;9.40;7.10;;;-0.70;99.90;;;;;;4967930;28;20242;-81
2023/03/12 07:04:43;;;;;;;9.77;7.40;;;-0.70;99.90;;;;;;4984725;28;20230;-81
2023/03/12 07:07:10;;;;;;;11.33;7.77;;;-0.60;99.90;;;;;;4988069;28;20232;-80
2023/03/12 07:09:37;;;;;;;9.83;6.57;;;-0.60;99.90;;;;;;4989499;28;20724;-79
2023/03/12 07:12:04;;;;;;;8.10;7.07;;;-0.50;99.90;;;;;;4986818;28;20792;-80
2023/03/12 07:14:30;;;;;;;8.77;7.23;;;-0.50;99.90;;;;;;4992367;28;20225;-81
2023/03/12 07:17:00;;;;;;;8.93;7.30;;;-0.40;99.90;;;;;;4991819;28;20592;-82
2023/03/12 07:19:28;;;;;;;12.80;6.90;;;-0.20;99.90;;;;;;4991027;28;20716;-84
2023/03/12 07:21:55;;;;;;;9.57;7.00;;;-0.10;99.90;;;;;;4988872;28;20231;-82
2023/03/12 07:24:23;;;;;;;8.07;6.20;;;0.00;99.90;;;;;;4988084;28;20800;-81
2023/03/12 07:26:50;;;;;;;8.30;6.00;;;0.10;99.90;;;;;;4991856;28;20226;-85
2023/03/12 07:29:16;;;;;;;8.93;6.40;;;0.10;99.90;;;;;;4994468;28;20226;-80
2023/03/12 07:31:43;;;;;;;9.70;6.63;;;0.20;99.90;;;;;;4986864;28;20894;-81
2023/03/12 07:34:11;;;;;;;13.53;7.10;;;0.30;99.90;;;;;;4987512;28;20919;-81
2023/03/12 07:36:37;;;;;;;14.93;5.77;;;0.40;99.90;;;;;;4991124;28;20244;-81
2023/03/12 07:39:04;;;;;;;19.30;6.50;;;0.40;99.90;;;;;;4985189;28;20310;-81
2023/03/12 07:41:31;;;;;;;10.07;6.20;;;0.50;99.90;;;;;;4987953;28;20229;-81
2023/03/12 07:43:58;;;;;;;20.60;6.53;;;0.50;99.90;;;;;;4986842;28;20309;-82
2023/03/12 07:46:24;;;;;;;11.20;6.07;;;0.60;99.90;;;;;;4984588;28;20720;-80
2023/03/12 07:48:51;;;;;;;8.07;5.60;;;0.60;99.90;;;;;;4989916;28;20219;-80
2023/03/12 07:51:19;;;;;;;10.10;5.60;;;0.70;99.90;;;;;;4988683;28;20215;-81
2023/03/12 07:53:46;;;;;;;35.30;23.20;;;0.80;99.90;;;;;;5006401;28;20225;-81
2023/03/12 07:56:12;;;;;;;11.13;6.50;;;0.90;99.90;;;;;;4989839;28;20241;-82
2023/03/12 07:58:39;;;;;;;11.77;5.73;;;1.10;99.90;;;;;;4984008;28;20238;-80
2023/03/12 08:01:06;;;;;;;7.57;5.30;;;1.20;99.90;;;;;;4984369;28;20229;-81
2023/03/12 08:03:33;;;;;;;8.20;5.93;;;1.30;99.90;;;;;;4991342;28;20231;-81
2023/03/12 08:06:02;;;;;;;6.03;5.07;;;1.40;99.90;;;;;;4986453;28;20316;-80
2023/03/12 08:08:31;;;;;;;8.97;5.27;;;1.50;99.90;;;;;;4986882;28;21188;-80
2023/03/12 08:10:57;;;;;;;9.27;6.53;;;1.70;99.90;;;;;;4994345;28;20225;-81
2023/03/12 08:13:25;;;;;;;8.10;5.50;;;1.80;99.90;;;;;;4992858;28;20236;-80
2023/03/12 08:15:52;;;;;;;11.07;5.40;;;1.90;99.90;;;;;;4985381;28;20226;-81
2023/03/12 08:18:20;;;;;;;7.37;4.90;;;2.00;99.90;;;;;;4987283;28;20231;-81
2023/03/12 08:20:50;;;;;;;6.33;5.20;;;2.00;99.90;;;;;;5011769;28;20294;-81
2023/03/12 08:23:17;;;;;;;7.43;5.60;;;2.10;99.90;;;;;;4990247;28;20227;-81
2023/03/12 08:25:46;;;;;;;8.00;4.87;;;2.20;99.90;;;;;;4984685;28;20241;-80
2023/03/12 08:28:13;;;;;;;6.93;4.90;;;2.30;99.90;;;;;;4988037;28;20225;-80
2023/03/12 08:30:40;;;;;;;8.17;5.10;;;2.40;99.90;;;;;;4991420;28;20229;-79
2023/03/12 08:33:06;;;;;;;7.03;5.03;;;2.50;99.90;;;;;;4995006;28;20233;-80
2023/03/12 08:35:33;;;;;;;8.40;4.97;;;2.60;99.90;;;;;;4993663;28;20238;-80
2023/03/12 08:38:00;;;;;;;6.47;4.40;;;2.70;99.90;;;;;;4994515;28;20221;-80
2023/03/12 08:40:27;;;;;;;9.87;4.20;;;2.70;99.90;;;;;;5009169;28;20779;-80
2023/03/12 08:42:55;;;;;;;7.43;4.43;;;2.70;99.90;;;;;;4979145;28;20222;-80
2023/03/12 08:45:21;;;;;;;6.57;4.30;;;2.80;99.90;;;;;;4984593;28;20223;-79
2023/03/12 08:47:49;;;;;;;6.43;4.20;;;2.80;99.90;;;;;;4988985;28;20223;-80
2023/03/12 08:50:16;;;;;;;7.13;3.90;;;2.80;99.90;;;;;;4990948;28;20226;-80
2023/03/12 08:52:44;;;;;;;5.53;3.63;;;2.90;99.90;;;;;;4983224;28;20704;-79
2023/03/12 08:55:11;;;;;;;5.80;3.80;;;2.90;99.90;;;;;;4970399;28;20738;-80
2023/03/12 08:57:39;;;;;;;9.13;4.10;;;3.00;99.90;;;;;;4972413;28;20231;-80
2023/03/12 09:00:13;;;;;;;5.90;3.87;;;3.00;99.90;;;;;;4971444;28;20712;-80
2023/03/12 09:02:42;;;;;;;6.70;2.93;;;3.10;99.90;;;;;;4970319;28;20228;-80
2023/03/12 09:05:09;;;;;;;7.87;3.60;;;3.10;99.90;;;;;;4971562;28;20265;-80
2023/03/12 09:07:37;;;;;;;6.30;3.83;;;3.10;99.90;;;;;;4988389;28;20233;-80
2023/03/12 09:10:04;;;;;;;5.67;3.90;;;3.10;99.90;;;;;;4990953;28;20234;-80
2023/03/12 09:12:31;;;;;;;5.13;3.17;;;3.20;99.90;;;;;;4991744;28;20626;-80
2023/03/12 09:14:58;;;;;;;9.73;4.00;;;3.20;99.90;;;;;;4992757;28;20229;-80
2023/03/12 09:17:28;;;;;;;6.13;3.90;;;3.20;99.90;;;;;;4989864;28;20223;-80
2023/03/12 09:19:54;;;;;;;5.13;3.10;;;3.10;99.90;;;;;;4992217;28;20224;-80
2023/03/12 09:22:21;;;;;;;6.63;3.17;;;3.10;99.90;;;;;;4991523;28;20257;-80
2023/03/12 09:24:48;;;;;;;6.27;2.70;;;3.10;99.90;;;;;;4990534;28;20369;-81
2023/03/12 09:27:14;;;;;;;4.43;2.67;;;3.00;99.90;;;;;;4985098;28;20314;-80
2023/03/12 09:29:41;;;;;;;6.37;2.90;;;3.00;99.90;;;;;;4990505;28;20227;-80
2023/03/12 09:32:08;;;;;;;6.47;3.37;;;3.00;99.90;;;;;;4990461;28;20231;-80
2023/03/12 09:34:36;;;;;;;7.70;4.57;;;3.00;99.90;;;;;;4991282;28;20227;-80
2023/03/12 09:37:03;;;;;;;7.60;3.43;;;3.10;99.90;;;;;;4992990;28;20248;-80
2023/03/12 09:39:29;;;;;;;5.80;3.37;;;3.10;99.90;;;;;;4990736;28;20235;-80
2023/03/12 09:41:56;;;;;;;5.87;2.77;;;3.10;99.90;;;;;;4988974;28;20315;-80
2023/03/12 09:44:32;;;;;;;7.10;3.30;;;3.10;99.90;;;;;;4989761;28;20941;-80
2023/03/12 09:47:02;;;;;;;7.37;3.10;;;3.20;99.90;;;;;;4994566;28;20228;-80
2023/03/12 09:49:35;;;;;;;6.37;4.27;;;3.10;99.90;;;;;;4990061;28;20224;-80
2023/03/12 09:52:13;;;;;;;5.33;2.97;;;3.20;99.90;;;;;;4989811;28;20247;-80
2023/03/12 09:54:48;;;;;;;6.40;3.43;;;3.20;99.90;;;;;;5000210;28;20228;-81
2023/03/12 09:57:21;;;;;;;9.00;4.73;;;3.30;99.90;;;;;;4969154;28;20254;-80
2023/03/12 09:59:49;;;;;;;6.67;4.03;;;3.40;99.90;;;;;;4970740;28;20258;-80
2023/03/12 10:02:33;;;;;;;8.20;4.60;;;3.50;99.90;;;;;;4969671;28;20603;-80
2023/03/12 10:05:05;;;;;;;7.43;3.60;;;3.60;99.90;;;;;;4974478;28;20640;-80
2023/03/12 10:07:37;;;;;;;6.73;4.33;;;3.70;99.90;;;;;;5006193;28;20233;-80
2023/03/12 10:10:16;;;;;;;4.93;3.83;;;3.80;99.90;;;;;;4990973;28;20227;-81
2023/03/12 10:12:57;;;;;;;8.53;4.20;;;3.80;99.90;;;;;;4991605;28;20313;-81
2023/03/12 10:15:36;;;;;;;6.67;4.87;;;3.80;99.90;;;;;;4987680;28;20234;-80
2023/03/12 10:18:14;;;;;;;5.10;3.90;;;3.90;99.90;;;;;;4992362;28;20996;-80
2023/03/12 10:20:51;;;;;;;6.03;4.13;;;4.00;99.90;;;;;;4989460;28;20231;-81
2023/03/12 10:23:29;;;;;;;6.20;4.40;;;4.00;99.90;;;;;;4988154;28;20237;-80
2023/03/12 10:25:59;;;;;;;8.30;3.60;;;4.10;99.90;;;;;;4988907;28;20231;-80
2023/03/12 10:28:32;;;;;;;6.70;3.67;;;4.10;99.90;;;;;;4990105;28;20236;-80
2023/03/12 10:31:01;;;;;;;6.43;3.50;;;4.20;99.90;;;;;;4987335;28;20637;-81
2023/03/12 10:33:39;;;;;;;6.77;3.97;;;4.30;99.90;;;;;;4987430;28;20226;-80
2023/03/12 10:36:16;;;;;;;6.53;3.43;;;4.40;99.90;;;;;;4986202;28;20224;-79
2023/03/12 10:38:47;;;;;;;6.80;4.00;;;4.50;99.90;;;;;;4985947;28;20236;-78
2023/03/12 10:41:16;;;;;;;7.57;3.73;;;4.50;99.90;;;;;;4988555;28;20746;-79
2023/03/12 10:43:43;;;;;;;6.60;3.83;;;4.60;99.90;;;;;;4984554;28;20231;-79
2023/03/12 10:46:38;;;;;;;4.93;3.03;;;4.60;99.90;;;;;;4988054;28;20244;-78
2023/03/12 10:49:25;;;;;;;5.40;2.73;;;4.70;99.90;;;;;;4986249;28;20295;-78
2023/03/12 10:51:57;;;;;;;6.20;3.17;;;4.70;98.60;;;;;;4987492;28;20841;-78
2023/03/12 10:54:28;;;;;;;6.13;3.10;;;4.70;99.90;;;;;;4991042;28;20238;-78
2023/03/12 10:56:55;;;;;;;6.43;3.70;;;4.80;99.90;;;;;;4991084;28;20240;-78
2023/03/12 10:59:25;;;;;;;6.00;3.40;;;4.80;99.50;;;;;;4988496;28;21138;-78
2023/03/12 11:01:52;;;;;;;5.53;2.93;;;4.80;99.90;;;;;;4983221;28;20223;-78
2023/03/12 11:04:24;;;;;;;7.37;3.47;;;4.70;99.30;;;;;;4993658;28;20754;-78
2023/03/12 11:07:17;;;;;;;6.33;3.70;;;4.70;99.90;;;;;;4994531;28;20216;-78
2023/03/12 11:09:46;;;;;;;5.13;3.27;;;4.60;99.60;;;;;;4984302;28;20225;-78
2023/03/12 11:12:24;;;;;;;6.70;3.37;;;4.60;98.10;;;;;;4987565;28;20259;-78
2023/03/12 11:14:51;;;;;;;7.60;4.10;;;4.50;99.40;;;;;;4994517;28;20782;-78
2023/03/12 11:17:24;;;;;;;9.63;3.93;;;4.50;99.50;;;;;;4984525;28;20669;-78
2023/03/12 11:19:51;;;;;;;4.33;3.40;;;4.30;98.00;;;;;;4984505;28;20228;-78
2023/03/12 11:22:29;;;;;;;6.13;4.03;;;4.20;98.70;;;;;;4984228;28;20240;-78
2023/03/12 11:24:59;;;;;;;9.00;4.17;;;4.20;99.30;;;;;;4980298;28;20242;-78
2023/03/12 11:27:40;;;;;;;6.63;3.50;;;4.10;98.30;;;;;;4977495;28;20222;-78
2023/03/12 11:30:12;;;;;;;5.77;3.50;;;3.90;97.40;;;;;;4987866;28;20232;-78
2023/03/12 11:32:41;;;;;;;5.83;3.03;;;3.90;99.50;;;;;;4981123;28;20310;-78
2023/03/12 11:35:10;;;;;;;5.10;2.60;;;3.80;98.10;;;;;;4986034;28;20232;-78
2023/03/12 11:37:48;;;;;;;7.17;3.23;;;3.70;97.00;;;;;;4988761;28;20227;-78
2023/03/12 11:40:29;;;;;;;7.73;2.90;;;3.70;98.80;;;;;;4982791;28;20900;-78
2023/03/12 11:43:17;;;;;;;5.67;2.50;;;3.70;98.80;;;;;;4990883;28;20257;-78
2023/03/12 11:45:53;;;;;;;5.47;2.87;;;3.60;98.00;;;;;;4983335;28;20285;-78
2023/03/12 11:48:24;;;;;;;5.33;2.73;;;3.50;97.60;;;;;;4990363;28;20240;-78
2023/03/12 11:51:06;;;;;;;4.97;2.30;;;3.50;98.50;;;;;;4986860;28;20226;-78
2023/03/12 11:53:49;;;;;;;7.17;2.80;;;3.50;98.40;;;;;;4986112;28;20247;-78
2023/03/12 11:56:26;;;;;;;6.50;3.13;;;3.60;98.80;;;;;;4983391;28;20585;-78
2023/03/12 11:59:17;;;;;;;5.83;2.57;;;3.50;98.20;;;;;;4984228;28;20231;-77
2023/03/12 12:01:56;;;;;;;4.60;2.10;;;3.60;99.50;;;;;;4984644;28;20220;-78
2023/03/12 12:04:53;;;;;;;4.03;2.50;;;3.60;98.20;;;;;;4987596;28;20229;-79
2023/03/12 12:07:32;;;;;;;5.80;3.00;;;3.60;98.00;;;;;;4979473;28;20222;-79
2023/03/12 12:10:05;;;;;;;5.13;2.20;;;3.60;98.30;;;;;;4996405;28;20225;-78
2023/03/12 12:12:47;;;;;;;7.13;2.70;;;3.50;98.50;;;;;;4993132;28;20230;-78
2023/03/12 12:15:23;;;;;;;7.17;2.80;;;3.50;99.00;;;;;;5008898;28;20260;-78
2023/03/12 12:18:02;;;;;;;3.60;2.10;;;3.60;98.80;;;;;;4989906;28;20230;-78
2023/03/12 12:20:37;;;;;;;4.83;2.40;;;3.60;99.30;;;;;;4990569;28;20714;-78
2023/03/12 12:23:17;;;;;;;4.97;2.73;;;3.60;99.70;;;;;;4990450;28;20318;-80
2023/03/12 12:26:04;;;;;;;4.27;2.63;;;3.60;99.10;;;;;;4995086;28;20230;-78
2023/03/12 12:28:52;;;;;;;3.97;2.00;;;3.70;99.70;;;;;;5006622;28;20235;-79
2023/03/12 12:31:30;;;;;;;6.30;2.53;;;3.60;99.20;;;;;;4992831;28;20227;-78
2023/03/12 12:34:26;;;;;;;6.53;2.33;;;3.70;99.90;;;;;;4996456;28;20222;-79
2023/03/12 12:36:58;;;;;;;6.80;2.50;;;3.70;99.90;;;;;;4958456;28;20267;-78
2023/03/12 12:39:31;;;;;;;6.43;2.60;;;3.70;99.90;;;;;;4988257;28;20236;-79
2023/03/12 12:42:03;;;;;;;3.97;2.70;;;3.70;99.90;;;;;;4991391;28;20582;-79
2023/03/12 12:44:35;;;;;;;5.30;2.63;;;3.70;99.90;;;;;;4989679;28;20239;-79
2023/03/12 12:47:06;;;;;;;5.40;2.40;;;3.70;99.90;;;;;;5003591;28;20234;-79
2023/03/12 12:49:41;;;;;;;5.80;3.17;;;3.60;99.90;;;;;;4990521;28;20226;-79
2023/03/12 12:52:11;;;;;;;4.93;2.50;;;3.60;99.90;;;;;;4995902;28;20254;-79
2023/03/12 12:54:45;;;;;;;5.97;2.40;;;3.60;99.90;;;;;;4996330;28;20314;-80
2023/03/12 12:57:16;;;;;;;3.97;2.13;;;3.70;99.90;;;;;;4983103;28;20306;-80
2023/03/12 12:59:57;;;;;;;6.03;2.73;;;3.70;99.90;;;;;;4984430;28;20275;-80